createdAt,value
2022-12-25T00:00:29.574Z,7.22
2022-12-25T00:02:57.256Z,6.93
2022-12-25T00:05:31.329Z,7.28
2022-12-25T00:08:04.703Z,6.87
2022-12-25T00:10:45.218Z,6.82
2022-12-25T00:13:15.413Z,6.72
2022-12-25T00:15:51.461Z,6.68
2022-12-25T00:18:25.594Z,6.95
2022-12-25T00:21:06.531Z,6.68
2022-12-25T00:23:35.993Z,6.78
2022-12-25T00:26:11.903Z,6.47
2022-12-25T00:28:40.455Z,6.82
2022-12-25T00:31:29.353Z,6.97
2022-12-25T00:33:57.297Z,6.43
2022-12-25T00:36:28.339Z,6.78
2022-12-25T00:38:55.898Z,6.37
2022-12-25T00:41:29.699Z,6.22
2022-12-25T00:44:00.298Z,6.25
2022-12-25T00:46:27.761Z,6.15
2022-12-25T00:49:04.157Z,6.40
2022-12-25T00:51:32.191Z,6.60
2022-12-25T00:54:06.483Z,6.72
2022-12-25T00:56:34.177Z,6.50
2022-12-25T00:59:01.991Z,6.32
2022-12-25T01:01:32.890Z,6.87
2022-12-25T01:04:03.829Z,6.45
2022-12-25T01:06:38.515Z,6.15
2022-12-25T01:09:08.636Z,6.45
2022-12-25T01:11:39.467Z,6.18
2022-12-25T01:14:10.719Z,6.30
2022-12-25T01:16:42.019Z,6.50
2022-12-25T01:19:09.935Z,6.82
2022-12-25T01:21:40.208Z,6.18
2022-12-25T01:24:11.091Z,5.87
2022-12-25T01:26:44.008Z,6.00
2022-12-25T01:31:45.417Z,5.87
2022-12-25T01:34:16.472Z,6.10
2022-12-25T01:36:46.442Z,5.75
2022-12-25T01:39:23.204Z,5.80
2022-12-25T01:41:51.062Z,6.12
2022-12-25T01:44:39.892Z,6.32
2022-12-25T01:47:07.934Z,6.43
2022-12-25T01:49:42.154Z,5.95
2022-12-25T01:52:25.186Z,6.30
2022-12-25T01:55:05.275Z,5.57
2022-12-25T01:57:38.256Z,6.22
2022-12-25T02:02:48.697Z,5.18
2022-12-25T02:05:23.116Z,6.18
2022-12-25T02:07:58.848Z,5.72
2022-12-25T02:10:29.396Z,6.05
2022-12-25T02:13:03.564Z,5.75
2022-12-25T02:15:41.236Z,6.32
2022-12-25T02:18:16.112Z,5.60
2022-12-25T02:21:01.824Z,5.25
2022-12-25T02:23:56.900Z,5.80
2022-12-25T02:26:42.873Z,5.72
2022-12-25T02:29:45.500Z,6.05
2022-12-25T02:32:19.549Z,5.40
2022-12-25T02:35:03.399Z,5.55
2022-12-25T02:37:49.479Z,5.20
2022-12-25T02:40:36.978Z,5.40
2022-12-25T02:43:09.620Z,5.40
2022-12-25T02:46:00.473Z,5.60
2022-12-25T02:48:34.536Z,5.45
2022-12-25T02:51:09.996Z,5.30
2022-12-25T02:53:45.829Z,5.93
2022-12-25T02:56:19.832Z,5.65
2022-12-25T02:58:51.534Z,5.60
2022-12-25T03:01:25.783Z,5.32
2022-12-25T03:03:57.778Z,5.35
2022-12-25T03:06:33.472Z,5.43
2022-12-25T03:09:12.645Z,5.53
2022-12-25T03:11:50.744Z,5.18
2022-12-25T03:14:24.015Z,5.78
2022-12-25T03:16:55.439Z,5.15
2022-12-25T03:19:35.981Z,5.60
2022-12-25T03:22:10.776Z,5.40
2022-12-25T03:24:41.881Z,4.97
2022-12-25T03:27:12.137Z,5.70
2022-12-25T03:29:42.217Z,5.45
2022-12-25T03:32:39.062Z,5.40
2022-12-25T03:35:21.016Z,4.97
2022-12-25T03:38:23.475Z,4.80
2022-12-25T03:41:01.656Z,5.40
2022-12-25T03:44:18.287Z,5.45
2022-12-25T03:47:03.693Z,5.35
2022-12-25T03:49:42.136Z,5.18
2022-12-25T03:52:15.264Z,5.40
2022-12-25T03:57:15.868Z,5.28
2022-12-25T03:59:47.122Z,5.28
2022-12-25T04:02:15.165Z,4.85
2022-12-25T04:04:50.770Z,4.95
2022-12-25T04:07:18.609Z,5.03
2022-12-25T04:09:51.253Z,5.12
2022-12-25T04:12:21.647Z,5.30
2022-12-25T04:14:52.508Z,5.07
2022-12-25T04:17:25.693Z,4.90
2022-12-25T04:19:58.930Z,5.28
2022-12-25T04:22:29.388Z,5.40
2022-12-25T04:24:59.210Z,4.82
2022-12-25T04:27:33.033Z,4.85
2022-12-25T04:30:06.658Z,4.70
2022-12-25T04:32:40.438Z,4.85
2022-12-25T04:35:11.679Z,5.20
2022-12-25T04:37:41.929Z,5.60
2022-12-25T04:40:16.373Z,4.72
2022-12-25T04:42:46.618Z,5.00
2022-12-25T04:45:21.551Z,5.05
2022-12-25T04:47:49.323Z,4.72
2022-12-25T04:50:22.851Z,4.40
2022-12-25T04:52:50.260Z,5.07
2022-12-25T04:55:23.736Z,4.85
2022-12-25T04:57:51.067Z,4.82
2022-12-25T05:00:19.068Z,5.07
2022-12-25T05:02:46.932Z,4.62
2022-12-25T05:05:14.795Z,4.93
2022-12-25T05:07:45.135Z,5.07
2022-12-25T05:10:15.970Z,5.05
2022-12-25T05:12:46.982Z,4.72
2022-12-25T05:15:15.037Z,5.03
2022-12-25T05:17:46.455Z,4.62
2022-12-25T05:20:18.247Z,4.43
2022-12-25T05:22:49.207Z,4.50
2022-12-25T05:25:19.867Z,4.80
2022-12-25T05:27:53.850Z,4.90
2022-12-25T05:30:24.922Z,4.85
2022-12-25T05:32:57.768Z,4.62
2022-12-25T05:35:28.183Z,4.70
2022-12-25T05:37:55.659Z,4.43
2022-12-25T05:40:22.580Z,4.65
2022-12-25T05:42:49.737Z,4.25
2022-12-25T05:45:25.296Z,4.47
2022-12-25T05:48:00.114Z,5.03
2022-12-25T05:50:30.229Z,4.53
2022-12-25T05:53:07.728Z,4.20
2022-12-25T05:55:40.190Z,4.45
2022-12-25T05:58:12.147Z,4.47
2022-12-25T06:00:43.850Z,4.75
2022-12-25T06:03:13.744Z,4.57
2022-12-25T06:05:46.609Z,4.70
2022-12-25T06:08:16.496Z,4.95
2022-12-25T06:10:43.465Z,4.90
2022-12-25T06:13:16.714Z,4.55
2022-12-25T06:15:43.599Z,4.62
2022-12-25T06:18:13.679Z,4.15
2022-12-25T06:20:44.328Z,4.37
2022-12-25T06:23:11.285Z,4.70
2022-12-25T06:25:47.899Z,5.00
2022-12-25T06:28:20.263Z,4.22
2022-12-25T06:30:50.758Z,4.40
2022-12-25T06:33:20.560Z,4.93
2022-12-25T06:35:47.906Z,4.75
2022-12-25T06:38:14.889Z,4.30
2022-12-25T06:40:41.720Z,4.82
2022-12-25T06:43:14.228Z,4.93
2022-12-25T06:45:44.211Z,4.35
2022-12-25T06:48:11.052Z,4.40
2022-12-25T06:50:44.804Z,4.65
2022-12-25T06:53:17.833Z,4.95
2022-12-25T06:58:20.140Z,5.10
2022-12-25T07:00:50.612Z,5.00
2022-12-25T07:03:30.257Z,4.82
2022-12-25T07:06:06.321Z,4.72
2022-12-25T07:08:36.280Z,5.22
2022-12-25T07:11:06.413Z,5.37
2022-12-25T07:13:41.662Z,5.00
2022-12-25T07:16:14.937Z,4.70
2022-12-25T07:18:51.829Z,5.10
2022-12-25T07:21:20.874Z,4.68
2022-12-25T07:23:54.152Z,4.60
2022-12-25T07:26:21.073Z,5.22
2022-12-25T07:28:55.700Z,5.28
2022-12-25T07:31:25.173Z,5.70
2022-12-25T07:33:55.246Z,5.60
2022-12-25T07:36:26.218Z,5.53
2022-12-25T07:38:56.508Z,5.30
2022-12-25T07:41:30.434Z,5.30
2022-12-25T07:44:03.531Z,5.72
2022-12-25T07:49:07.753Z,6.20
2022-12-25T07:51:37.481Z,5.90
2022-12-25T07:54:04.683Z,5.53
2022-12-25T07:56:35.018Z,5.03
2022-12-25T07:59:08.758Z,5.60
2022-12-25T08:01:36.592Z,5.55
2022-12-25T08:04:07.299Z,6.18
2022-12-25T08:06:35.755Z,5.55
2022-12-25T08:09:12.203Z,5.93
2022-12-25T08:11:40.845Z,6.30
2022-12-25T08:14:09.656Z,6.57
2022-12-25T08:16:44.687Z,5.30
2022-12-25T08:19:15.055Z,5.85
2022-12-25T08:21:42.485Z,7.30
2022-12-25T08:24:14.859Z,8.13
2022-12-25T08:26:46.943Z,7.65
2022-12-25T08:29:20.442Z,6.90
2022-12-25T08:31:50.949Z,7.03
2022-12-25T08:34:25.288Z,7.95
2022-12-25T08:36:58.973Z,7.05
2022-12-25T08:39:27.054Z,7.70
2022-12-25T08:42:00.716Z,7.15
2022-12-25T08:44:30.491Z,6.82
2022-12-25T08:47:04.149Z,6.60
2022-12-25T08:49:36.801Z,7.47
2022-12-25T08:52:09.198Z,6.60
2022-12-25T08:54:41.301Z,6.75
2022-12-25T08:57:14.697Z,6.87
2022-12-25T08:59:50.659Z,7.32
2022-12-25T09:02:24.194Z,6.85
2022-12-25T09:04:59.912Z,6.82
2022-12-25T09:07:29.463Z,6.97
2022-12-25T09:10:02.282Z,6.75
2022-12-25T09:12:29.184Z,7.18
2022-12-25T09:14:56.174Z,7.43
2022-12-25T09:17:26.664Z,6.90
2022-12-25T09:20:00.184Z,6.72
2022-12-25T09:22:34.271Z,7.10
2022-12-25T09:25:07.397Z,7.05
2022-12-25T09:27:37.075Z,7.25
2022-12-25T09:30:12.962Z,6.87
2022-12-25T09:32:40.057Z,7.05
2022-12-25T09:35:13.946Z,7.07
2022-12-25T09:37:47.304Z,7.00
2022-12-25T09:40:19.043Z,7.03
2022-12-25T09:42:49.691Z,6.93
2022-12-25T09:45:39.035Z,6.28
2022-12-25T09:48:06.420Z,6.85
2022-12-25T09:50:50.530Z,6.43
2022-12-25T09:53:26.291Z,6.60
2022-12-25T09:56:05.214Z,6.55
2022-12-25T09:58:34.856Z,6.20
2022-12-25T10:01:33.180Z,6.78
2022-12-25T10:04:31.918Z,6.60
2022-12-25T10:07:46.228Z,6.62
2022-12-25T10:10:43.594Z,6.60
2022-12-25T10:13:37.862Z,6.47
2022-12-25T10:16:31.870Z,6.43
2022-12-25T10:19:16.911Z,6.10
2022-12-25T10:21:49.489Z,7.32
2022-12-25T10:24:26.894Z,7.00
2022-12-25T10:26:59.673Z,6.68
2022-12-25T10:29:35.217Z,6.40
2022-12-25T10:32:11.168Z,6.12
2022-12-25T10:34:41.344Z,6.72
2022-12-25T10:37:12.432Z,6.45
2022-12-25T10:39:46.000Z,6.75
2022-12-25T10:42:34.137Z,6.45
2022-12-25T10:45:04.707Z,6.28
2022-12-25T10:47:39.012Z,6.53
2022-12-25T10:50:26.487Z,6.60
2022-12-25T10:53:17.892Z,5.97
2022-12-25T10:55:57.638Z,6.47
2022-12-25T10:58:30.887Z,6.05
2022-12-25T11:01:05.579Z,6.40
2022-12-25T11:03:41.686Z,6.22
2022-12-25T11:06:26.603Z,5.82
2022-12-25T11:09:01.081Z,6.22
2022-12-25T11:11:35.157Z,6.47
2022-12-25T11:14:16.252Z,6.32
2022-12-25T11:16:49.944Z,6.35
2022-12-25T11:19:35.450Z,6.62
2022-12-25T11:22:20.313Z,6.15
2022-12-25T11:24:53.114Z,6.25
2022-12-25T11:27:28.771Z,6.60
2022-12-25T11:30:04.380Z,5.70
2022-12-25T11:32:36.446Z,6.22
2022-12-25T11:35:15.331Z,6.20
2022-12-25T11:37:47.801Z,6.25
2022-12-25T11:40:40.941Z,5.85
2022-12-25T11:43:19.640Z,5.82
2022-12-25T11:45:56.550Z,5.97
2022-12-25T11:48:23.467Z,5.70
2022-12-25T11:50:55.524Z,5.97
2022-12-25T11:53:36.997Z,5.57
2022-12-25T11:56:15.031Z,5.50
2022-12-25T11:59:01.871Z,5.50
2022-12-25T12:01:53.047Z,6.25
2022-12-25T12:04:43.886Z,5.60
2022-12-25T12:07:25.802Z,5.45
2022-12-25T12:10:05.109Z,5.57
2022-12-25T12:12:49.142Z,5.80
2022-12-25T12:15:35.780Z,5.75
2022-12-25T12:18:31.353Z,5.55
2022-12-25T12:21:10.801Z,5.57
2022-12-25T12:24:03.737Z,5.50
2022-12-25T12:26:39.011Z,5.72
2022-12-25T12:29:27.318Z,5.22
2022-12-25T12:32:19.844Z,5.25
2022-12-25T12:34:48.780Z,5.50
2022-12-25T12:37:36.260Z,5.45
2022-12-25T12:40:08.994Z,5.15
2022-12-25T12:42:46.060Z,5.50
2022-12-25T12:45:32.707Z,5.57
2022-12-25T12:48:14.210Z,5.55
2022-12-25T12:50:45.369Z,6.87
2022-12-25T12:53:26.716Z,7.47
2022-12-25T12:55:57.353Z,7.78
2022-12-25T12:58:36.405Z,7.97
2022-12-25T13:01:28.338Z,7.95
2022-12-25T13:04:30.445Z,7.60
2022-12-25T13:07:25.409Z,7.15
2022-12-25T13:10:05.386Z,7.55
2022-12-25T13:12:39.080Z,7.70
2022-12-25T13:15:26.636Z,7.65
2022-12-25T13:18:02.438Z,7.60
2022-12-25T13:20:57.629Z,7.50
2022-12-25T13:23:36.533Z,7.95
2022-12-25T13:26:17.676Z,7.28
2022-12-25T13:28:48.227Z,7.45
2022-12-25T13:31:31.617Z,7.35
2022-12-25T13:34:09.084Z,7.10
2022-12-25T13:36:40.416Z,6.57
2022-12-25T13:39:11.822Z,6.57
2022-12-25T13:41:50.919Z,6.97
2022-12-25T13:44:27.485Z,6.68
2022-12-25T13:47:28.903Z,6.43
2022-12-25T13:50:02.544Z,7.20
2022-12-25T13:52:40.233Z,6.22
2022-12-25T13:55:29.124Z,6.22
2022-12-25T13:58:03.965Z,6.05
2022-12-25T14:00:49.631Z,6.10
2022-12-25T14:03:29.069Z,6.62
2022-12-25T14:06:16.682Z,6.30
2022-12-25T14:08:45.575Z,6.15
2022-12-25T14:11:16.621Z,5.85
2022-12-25T14:13:47.742Z,6.40
2022-12-25T14:16:21.567Z,6.62
2022-12-25T14:19:00.875Z,6.22
2022-12-25T14:21:36.698Z,6.00
2022-12-25T14:24:05.391Z,6.18
2022-12-25T14:26:34.567Z,6.05
2022-12-25T14:29:15.772Z,6.28
2022-12-25T14:31:49.882Z,5.80
2022-12-25T14:34:26.426Z,6.35
2022-12-25T14:36:54.497Z,5.68
2022-12-25T14:39:31.862Z,6.70
2022-12-25T14:42:21.766Z,6.07
2022-12-25T14:45:26.686Z,6.12
2022-12-25T14:47:59.073Z,5.90
2022-12-25T14:50:39.543Z,5.65
2022-12-25T14:53:18.532Z,6.20
2022-12-25T14:55:57.535Z,5.80
2022-12-25T14:58:28.549Z,5.60
2022-12-25T15:00:58.694Z,5.40
2022-12-25T15:03:37.957Z,5.72
2022-12-25T15:06:28.543Z,5.60
2022-12-25T15:09:16.509Z,5.85
2022-12-25T15:11:56.562Z,5.68
2022-12-25T15:14:27.764Z,5.40
2022-12-25T15:17:01.263Z,5.62
2022-12-25T15:19:38.417Z,5.00
2022-12-25T15:22:14.270Z,5.12
2022-12-25T15:24:47.775Z,5.28
2022-12-25T15:27:19.973Z,5.07
2022-12-25T15:32:35.290Z,4.97
2022-12-25T15:35:08.561Z,5.00
2022-12-25T15:37:35.582Z,5.32
2022-12-25T15:40:06.721Z,5.03
2022-12-25T15:42:39.529Z,5.12
2022-12-25T15:45:15.486Z,5.10
2022-12-25T15:47:42.421Z,5.05
2022-12-25T15:50:15.945Z,5.28
2022-12-25T15:52:43.552Z,4.95
2022-12-25T15:55:10.684Z,5.05
2022-12-25T15:57:45.389Z,4.87
2022-12-25T16:00:18.863Z,4.97
2022-12-25T16:02:49.820Z,5.00
2022-12-25T16:05:19.876Z,5.37
2022-12-25T16:07:46.931Z,5.12
2022-12-25T16:10:17.752Z,5.03
2022-12-25T16:12:45.763Z,4.80
2022-12-25T16:15:14.809Z,4.90
2022-12-25T16:17:45.073Z,4.93
2022-12-25T16:20:18.153Z,4.93
2022-12-25T16:22:46.347Z,5.20
2022-12-25T16:25:19.373Z,4.87
2022-12-25T16:30:18.698Z,4.78
2022-12-25T16:32:51.880Z,4.82
2022-12-25T16:35:21.968Z,4.85
2022-12-25T16:37:49.036Z,4.70
2022-12-25T16:40:16.088Z,5.15
2022-12-25T16:42:46.103Z,4.75
2022-12-25T16:45:13.290Z,4.85
2022-12-25T16:47:40.193Z,4.75
2022-12-25T16:50:10.407Z,4.70
2022-12-25T16:52:37.316Z,4.95
2022-12-25T16:55:04.970Z,4.65
2022-12-25T16:57:34.890Z,4.90
2022-12-25T17:00:04.546Z,4.80
2022-12-25T17:02:31.481Z,4.68
2022-12-25T17:05:01.192Z,4.72
2022-12-25T17:07:27.960Z,5.18
2022-12-25T17:09:54.905Z,5.00
2022-12-25T17:12:24.567Z,4.60
2022-12-25T17:14:54.916Z,5.05
2022-12-25T17:17:24.609Z,5.00
2022-12-25T17:19:51.528Z,4.93
2022-12-25T17:22:18.468Z,4.78
2022-12-25T17:24:45.741Z,4.62
2022-12-25T17:27:12.703Z,4.87
2022-12-25T17:29:42.671Z,4.87
2022-12-25T17:32:13.569Z,4.60
2022-12-25T17:34:40.452Z,4.75
2022-12-25T17:37:10.821Z,5.72
2022-12-25T17:39:37.573Z,5.05
2022-12-25T17:42:07.716Z,4.95
2022-12-25T17:44:34.688Z,5.05
2022-12-25T17:47:04.140Z,5.45
2022-12-25T17:49:31.007Z,4.72
2022-12-25T17:52:01.206Z,5.03
2022-12-25T17:54:34.273Z,5.00
2022-12-25T17:59:29.759Z,5.15
2022-12-25T18:01:59.272Z,5.22
2022-12-25T18:04:28.682Z,17.12
2022-12-25T18:06:55.496Z,21.58
2022-12-25T18:09:28.975Z,26.77
2022-12-25T18:11:59.441Z,23.33
2022-12-25T18:14:28.054Z,21.87
2022-12-25T18:16:54.915Z,19.20
2022-12-25T18:19:21.694Z,17.98
2022-12-25T18:21:54.694Z,17.40
2022-12-25T18:26:48.143Z,13.57
2022-12-25T18:29:15.011Z,14.50
2022-12-25T18:31:44.525Z,13.40
2022-12-25T18:34:11.571Z,13.45
2022-12-25T18:36:44.254Z,12.07
2022-12-25T18:39:15.518Z,12.23
2022-12-25T18:41:42.327Z,11.65
2022-12-25T18:44:09.468Z,11.30
2022-12-25T18:46:36.334Z,10.40
2022-12-25T18:49:03.141Z,11.07
2022-12-25T18:51:36.857Z,10.63
2022-12-25T18:54:07.177Z,9.80
2022-12-25T18:56:38.020Z,9.05
2022-12-25T18:59:04.811Z,9.55
2022-12-25T19:01:34.928Z,9.13
2022-12-25T19:04:05.710Z,8.43
2022-12-25T19:06:32.985Z,8.60
2022-12-25T19:08:59.832Z,8.45
2022-12-25T19:11:26.900Z,9.23
2022-12-25T19:13:53.653Z,8.27
2022-12-25T19:16:23.281Z,7.55
2022-12-25T19:18:53.067Z,8.52
2022-12-25T19:21:23.234Z,8.00
2022-12-25T19:23:53.342Z,7.30
2022-12-25T19:26:23.535Z,7.93
2022-12-25T19:28:56.297Z,7.20
2022-12-25T19:31:26.064Z,7.15
2022-12-25T19:33:56.148Z,7.20
2022-12-25T19:36:25.952Z,7.35
2022-12-25T19:38:58.432Z,7.18
2022-12-25T19:41:25.489Z,7.25
2022-12-25T19:43:52.719Z,6.62
2022-12-25T19:46:27.502Z,6.53
2022-12-25T19:48:58.458Z,6.53
2022-12-25T19:51:28.921Z,6.00
2022-12-25T19:53:59.400Z,6.72
2022-12-25T19:56:30.210Z,6.10
2022-12-25T19:59:06.503Z,6.28
2022-12-25T20:01:36.461Z,6.35
2022-12-25T20:04:03.714Z,6.72
2022-12-25T20:06:35.379Z,6.93
2022-12-25T20:09:05.306Z,7.20
2022-12-25T20:11:33.747Z,8.23
2022-12-25T20:14:01.663Z,7.15
2022-12-25T20:16:28.560Z,7.65
2022-12-25T20:18:58.893Z,7.05
2022-12-25T20:21:26.375Z,7.80
2022-12-25T20:23:54.289Z,7.30
2022-12-25T20:26:24.515Z,7.10
2022-12-25T20:28:51.667Z,7.53
2022-12-25T20:31:25.937Z,7.03
2022-12-25T20:33:53.463Z,7.15
2022-12-25T20:36:20.377Z,7.37
2022-12-25T20:38:50.373Z,7.57
2022-12-25T20:41:28.735Z,7.15
2022-12-25T20:43:56.932Z,8.43
2022-12-25T20:46:24.632Z,7.47
2022-12-25T20:48:51.966Z,7.80
2022-12-25T20:51:25.215Z,7.97
2022-12-25T20:53:55.737Z,8.80
2022-12-25T20:56:27.241Z,7.85
2022-12-25T20:59:00.925Z,7.47
2022-12-25T21:01:30.235Z,8.30
2022-12-25T21:04:01.171Z,9.05
2022-12-25T21:06:28.371Z,7.70
2022-12-25T21:08:55.891Z,7.75
2022-12-25T21:11:23.427Z,8.63
2022-12-25T21:13:50.526Z,8.25
2022-12-25T21:16:21.605Z,8.50
2022-12-25T21:18:53.748Z,7.78
2022-12-25T21:21:22.166Z,8.47
2022-12-25T21:23:55.282Z,7.72
2022-12-25T21:28:57.387Z,7.65
2022-12-25T21:31:25.223Z,8.05
2022-12-25T21:33:53.201Z,8.52
2022-12-25T21:36:23.498Z,8.68
2022-12-25T21:39:02.573Z,8.32
2022-12-25T21:41:37.267Z,8.60
2022-12-25T21:44:08.187Z,8.45
2022-12-25T21:46:38.761Z,8.30
2022-12-25T21:49:06.828Z,8.15
2022-12-25T21:51:36.736Z,7.80
2022-12-25T21:54:08.827Z,8.77
2022-12-25T21:56:43.481Z,8.10
2022-12-25T21:59:13.832Z,8.27
2022-12-25T22:01:41.370Z,7.72
2022-12-25T22:04:14.238Z,7.97
2022-12-25T22:06:44.789Z,7.68
2022-12-25T22:09:14.995Z,7.60
2022-12-25T22:11:44.896Z,7.18
2022-12-25T22:14:50.474Z,8.23
2022-12-25T22:17:09.358Z,7.55
2022-12-25T22:19:36.194Z,7.70
2022-12-25T22:22:03.147Z,7.68
2022-12-25T22:24:30.342Z,7.10
2022-12-25T22:26:57.524Z,7.85
2022-12-25T22:29:31.271Z,7.20
2022-12-25T22:31:58.807Z,6.95
2022-12-25T22:34:29.013Z,7.78
2022-12-25T22:36:57.317Z,7.15
2022-12-25T22:39:25.153Z,7.65
2022-12-25T22:41:58.032Z,6.85
2022-12-25T22:44:27.072Z,7.15
2022-12-25T22:46:57.613Z,7.15
2022-12-25T22:49:25.276Z,6.95
2022-12-25T22:51:53.455Z,7.00
2022-12-25T22:54:22.079Z,7.90
2022-12-25T22:56:53.521Z,7.07
2022-12-25T22:59:23.140Z,6.95
2022-12-25T23:01:50.976Z,6.75
2022-12-25T23:04:18.129Z,7.03
2022-12-25T23:06:45.379Z,6.93
2022-12-25T23:09:19.004Z,9.00
2022-12-25T23:11:50.952Z,9.15
2022-12-25T23:14:17.764Z,10.05
2022-12-25T23:16:44.637Z,10.02
2022-12-25T23:19:13.326Z,8.95
2022-12-25T23:21:40.857Z,9.68
2022-12-25T23:24:10.045Z,9.27
2022-12-25T23:26:37.328Z,8.75
2022-12-25T23:29:06.659Z,8.60
2022-12-25T23:31:38.051Z,8.32
2022-12-25T23:34:05.916Z,8.90
2022-12-25T23:36:39.301Z,8.05
2022-12-25T23:39:10.626Z,7.80
2022-12-25T23:41:45.319Z,8.55
2022-12-25T23:44:15.383Z,8.25
2022-12-25T23:46:52.646Z,8.02
2022-12-25T23:49:21.074Z,8.05
2022-12-25T23:51:47.839Z,7.45
2022-12-25T23:54:22.042Z,8.30
2022-12-25T23:56:49.780Z,7.40
2022-12-25T23:59:17.263Z,7.70
